createdAt,value
2023-04-20T00:01:29.201Z,100207.44
2023-04-20T00:04:01.589Z,100210.41
2023-04-20T00:06:35.335Z,100209.06
2023-04-20T00:09:06.270Z,100201.84
2023-04-20T00:11:39.862Z,100202.09
2023-04-20T00:14:13.982Z,100204.28
2023-04-20T00:16:41.894Z,100201.03
2023-04-20T00:19:12.907Z,100197.25
2023-04-20T00:21:40.940Z,100192.97
2023-04-20T00:24:12.147Z,100200.53
2023-04-20T00:26:50.108Z,100196.78
2023-04-20T00:29:20.117Z,100198.91
2023-04-20T00:31:48.057Z,100180.41
2023-04-20T00:34:18.904Z,100187.13
2023-04-20T00:36:49.734Z,100190.91
2023-04-20T00:39:23.039Z,100183.94
2023-04-20T00:41:53.326Z,100178.03
2023-04-20T00:44:27.736Z,100175.34
2023-04-20T00:46:57.931Z,100180.72
2023-04-20T00:49:28.236Z,100173.75
2023-04-20T00:52:00.698Z,100175.91
2023-04-20T00:54:34.069Z,100178.59
2023-04-20T00:57:02.280Z,100175.41
2023-04-20T00:59:33.355Z,100173.00
2023-04-20T01:02:08.893Z,100174.06
2023-04-20T01:04:45.160Z,100177.53
2023-04-20T01:07:24.126Z,100180.22
2023-04-20T01:09:55.757Z,100183.47
2023-04-20T01:12:26.388Z,100184.28
2023-04-20T01:15:01.405Z,100184.00
2023-04-20T01:17:35.257Z,100184.53
2023-04-20T01:20:09.774Z,100179.16
2023-04-20T01:22:49.735Z,100177.59
2023-04-20T01:25:25.061Z,100169.03
2023-04-20T01:27:58.628Z,100170.62
2023-04-20T01:30:29.676Z,100174.38
2023-04-20T01:33:01.123Z,100173.84
2023-04-20T01:35:35.385Z,100178.12
2023-04-20T01:38:03.023Z,100181.91
2023-04-20T01:40:33.623Z,100181.09
2023-04-20T01:43:01.335Z,100170.13
2023-04-20T01:45:28.990Z,100179.75
2023-04-20T01:47:56.670Z,100175.78
2023-04-20T01:50:26.764Z,100182.47
2023-04-20T01:52:54.767Z,100184.06
2023-04-20T01:55:22.403Z,100176.63
2023-04-20T01:57:59.347Z,100177.91
2023-04-20T02:00:32.682Z,100176.03
2023-04-20T02:03:06.314Z,100174.44
2023-04-20T02:05:39.960Z,100179.81
2023-04-20T02:08:19.557Z,100172.56
2023-04-20T02:10:48.701Z,100177.66
2023-04-20T02:13:16.545Z,100173.63
2023-04-20T02:15:51.810Z,100174.44
2023-04-20T02:18:27.927Z,100168.56
2023-04-20T02:20:58.267Z,100165.87
2023-04-20T02:23:31.302Z,100162.13
2023-04-20T02:25:58.802Z,100155.16
2023-04-20T02:28:30.204Z,100160.53
2023-04-20T02:31:01.136Z,100157.00
2023-04-20T02:33:29.513Z,100158.91
2023-04-20T02:36:03.801Z,100151.94
2023-04-20T02:38:37.497Z,100149.25
2023-04-20T02:41:08.690Z,100156.75
2023-04-20T02:43:42.017Z,100158.38
2023-04-20T02:46:13.880Z,100158.66
2023-04-20T02:48:44.058Z,100166.97
2023-04-20T02:51:20.144Z,100157.34
2023-04-20T02:53:50.662Z,100161.63
2023-04-20T02:56:18.763Z,100160.03
2023-04-20T02:58:52.688Z,100161.63
2023-04-20T03:01:20.488Z,100157.59
2023-04-20T03:03:54.405Z,100170.22
2023-04-20T03:06:22.585Z,100168.63
2023-04-20T03:08:52.729Z,100164.06
2023-04-20T03:11:23.996Z,100163.25
2023-04-20T03:13:51.438Z,100161.66
2023-04-20T03:16:22.544Z,100165.41
2023-04-20T03:18:53.383Z,100168.06
2023-04-20T03:21:23.933Z,100166.47
2023-04-20T03:23:51.947Z,100165.69
2023-04-20T03:26:23.372Z,100163.28
2023-04-20T03:28:56.815Z,100174.00
2023-04-20T03:31:30.219Z,100164.34
2023-04-20T03:33:58.297Z,100167.03
2023-04-20T03:36:31.616Z,100167.81
2023-04-20T03:39:02.653Z,100170.00
2023-04-20T03:41:34.229Z,100170.00
2023-04-20T03:44:02.271Z,100170.00
2023-04-20T03:46:33.660Z,100169.44
2023-04-20T03:49:10.188Z,100175.63
2023-04-20T03:51:38.411Z,100176.69
2023-04-20T03:54:10.618Z,100181.25
2023-04-20T03:56:41.528Z,100172.72
2023-04-20T03:59:14.495Z,100171.91
2023-04-20T04:01:45.254Z,100184.22
2023-04-20T04:04:12.878Z,100177.53
2023-04-20T04:06:40.571Z,100181.00
2023-04-20T04:09:08.447Z,100178.88
2023-04-20T04:11:38.762Z,100179.66
2023-04-20T04:14:16.483Z,100183.69
2023-04-20T04:16:46.818Z,100190.09
2023-04-20T04:19:14.716Z,100187.38
2023-04-20T04:21:45.468Z,100192.19
2023-04-20T04:24:16.189Z,100195.94
2023-04-20T04:26:47.654Z,100192.69
2023-04-20T04:29:21.489Z,100198.03
2023-04-20T04:31:50.296Z,100194.78
2023-04-20T04:34:22.941Z,100198.78
2023-04-20T04:36:56.919Z,100196.34
2023-04-20T04:39:38.318Z,100189.91
2023-04-20T04:42:06.684Z,100189.09
2023-04-20T04:44:37.680Z,100196.63
2023-04-20T04:47:08.362Z,100201.22
2023-04-20T04:49:38.633Z,100187.34
2023-04-20T04:52:12.497Z,100190.13
2023-04-20T04:54:45.921Z,100184.50
2023-04-20T04:57:16.670Z,100191.75
2023-04-20T04:59:47.202Z,100197.09
2023-04-20T05:02:20.758Z,100197.09
2023-04-20T05:04:53.309Z,100206.97
2023-04-20T05:07:24.588Z,100201.88
2023-04-20T05:10:09.614Z,100203.97
2023-04-20T05:12:39.940Z,100211.72
2023-04-20T05:15:08.386Z,100210.37
2023-04-20T05:17:39.351Z,100211.44
2023-04-20T05:20:11.340Z,100210.34
2023-04-20T05:22:40.783Z,100219.72
2023-04-20T05:25:08.957Z,100216.22
2023-04-20T05:27:46.099Z,100217.31
2023-04-20T05:30:21.349Z,100219.97
2023-04-20T05:32:52.172Z,100214.56
2023-04-20T05:35:23.352Z,100212.97
2023-04-20T05:37:58.000Z,100214.56
2023-04-20T05:40:26.065Z,100219.16
2023-04-20T05:42:56.993Z,100221.03
2023-04-20T05:45:25.648Z,100217.84
2023-04-20T05:48:01.815Z,100217.06
2023-04-20T05:50:30.444Z,100213.81
2023-04-20T05:52:58.255Z,100211.44
2023-04-20T05:55:30.734Z,100211.47
2023-04-20T05:58:04.713Z,100212.22
2023-04-20T06:00:35.679Z,100212.22
2023-04-20T06:03:06.836Z,100213.28
2023-04-20T06:05:40.233Z,100217.31
2023-04-20T06:08:10.299Z,100215.69
2023-04-20T06:10:42.134Z,100217.81
2023-04-20T06:13:09.331Z,100221.03
2023-04-20T06:15:39.685Z,100218.84
2023-04-20T06:18:13.503Z,100220.75
2023-04-20T06:20:47.443Z,100226.91
2023-04-20T06:23:21.368Z,100225.03
2023-04-20T06:25:52.340Z,100230.37
2023-04-20T06:28:26.188Z,100224.75
2023-04-20T06:30:59.064Z,100233.31
2023-04-20T06:33:32.269Z,100227.69
2023-04-20T06:36:09.851Z,100227.94
2023-04-20T06:38:47.467Z,100231.16
2023-04-20T06:41:27.354Z,100230.13
2023-04-20T06:43:56.613Z,100234.69
2023-04-20T06:46:29.987Z,100237.63
2023-04-20T06:48:58.706Z,100242.75
2023-04-20T06:51:32.243Z,100248.91
2023-04-20T06:54:04.023Z,100256.41
2023-04-20T06:56:37.358Z,100251.03
2023-04-20T06:59:25.137Z,100249.16
2023-04-20T07:01:55.367Z,100247.56
2023-04-20T07:04:26.127Z,100255.91
2023-04-20T07:06:57.348Z,100256.41
2023-04-20T07:09:31.714Z,100248.34
2023-04-20T07:11:59.608Z,100255.91
2023-04-20T07:14:29.493Z,100260.47
2023-04-20T07:17:00.677Z,100257.50
2023-04-20T07:19:34.182Z,100255.09
2023-04-20T07:22:05.546Z,100258.03
2023-04-20T07:24:35.932Z,100252.69
2023-04-20T07:27:03.531Z,100257.25
2023-04-20T07:29:34.867Z,100251.63
2023-04-20T07:32:05.752Z,100253.22
2023-04-20T07:34:40.050Z,100257.00
2023-04-20T07:37:14.137Z,100251.63
2023-04-20T07:39:44.213Z,100248.94
2023-04-20T07:42:17.547Z,100260.22
2023-04-20T07:44:54.374Z,100260.75
2023-04-20T07:47:34.334Z,100256.19
2023-04-20T07:50:07.795Z,100259.16
2023-04-20T07:52:38.229Z,100258.63
2023-04-20T07:55:15.526Z,100254.84
2023-04-20T07:57:47.452Z,100257.53
2023-04-20T08:00:20.860Z,100257.53
2023-04-20T08:02:48.605Z,100254.34
2023-04-20T08:05:20.165Z,100263.97
2023-04-20T08:07:50.893Z,100254.34
2023-04-20T08:10:30.464Z,100259.69
2023-04-20T08:13:04.207Z,100255.44
2023-04-20T08:15:34.377Z,100258.91
2023-04-20T08:18:11.701Z,100256.47
2023-04-20T08:20:38.881Z,100264.53
2023-04-20T08:23:08.626Z,100254.59
2023-04-20T08:25:39.700Z,100263.47
2023-04-20T08:28:15.342Z,100256.47
2023-04-20T08:30:46.779Z,100260.25
2023-04-20T08:33:16.906Z,100263.47
2023-04-20T08:35:50.803Z,100259.69
2023-04-20T08:38:33.817Z,100251.91
2023-04-20T08:41:08.627Z,100244.69
2023-04-20T08:43:44.231Z,100241.19
2023-04-20T08:46:18.455Z,100242.81
2023-04-20T08:48:47.315Z,100250.06
2023-04-20T08:51:16.523Z,100247.37
2023-04-20T08:53:46.455Z,100241.19
2023-04-20T08:56:18.999Z,100246.56
2023-04-20T08:58:57.756Z,100245.75
2023-04-20T09:01:35.544Z,100245.75
2023-04-20T09:04:25.788Z,100242.28
2023-04-20T09:06:57.429Z,100245.75
2023-04-20T09:09:25.405Z,100243.63
2023-04-20T09:12:05.948Z,100241.19
2023-04-20T09:14:48.496Z,100240.37
2023-04-20T09:17:34.521Z,100241.19
2023-04-20T09:20:07.582Z,100240.37
2023-04-20T09:22:36.932Z,100240.37
2023-04-20T09:25:19.415Z,100235.03
2023-04-20T09:28:05.373Z,100234.50
2023-04-20T09:30:51.340Z,100233.44
2023-04-20T09:33:28.422Z,100228.34
2023-04-20T09:36:06.612Z,100231.84
2023-04-20T09:38:39.921Z,100227.81
2023-04-20T09:41:11.564Z,100228.62
2023-04-20T09:43:44.380Z,100225.41
2023-04-20T09:46:14.455Z,100221.41
2023-04-20T09:48:46.712Z,100224.38
2023-04-20T09:51:21.216Z,100218.22
2023-04-20T09:53:53.023Z,100224.38
2023-04-20T09:56:25.846Z,100225.41
2023-04-20T09:58:57.068Z,100214.69
2023-04-20T10:01:31.378Z,100219.50
2023-04-20T10:04:09.875Z,100219.50
2023-04-20T10:06:52.422Z,100218.44
2023-04-20T10:09:26.467Z,100218.12
2023-04-20T10:12:09.627Z,100218.94
2023-04-20T10:14:37.577Z,100211.97
2023-04-20T10:17:12.468Z,100209.84
2023-04-20T10:19:48.859Z,100215.19
2023-04-20T10:22:30.613Z,100215.72
2023-04-20T10:25:21.607Z,100214.63
2023-04-20T10:27:59.936Z,100209.25
2023-04-20T10:30:31.947Z,100211.16
2023-04-20T10:33:11.742Z,100210.34
2023-04-20T10:36:03.431Z,100212.53
2023-04-20T10:38:31.158Z,100208.75
2023-04-20T10:41:16.021Z,100210.34
2023-04-20T10:43:53.522Z,100196.94
2023-04-20T10:46:23.587Z,100196.94
2023-04-20T10:48:58.514Z,100196.44
2023-04-20T10:51:28.745Z,100189.97
2023-04-20T10:54:07.206Z,100184.06
2023-04-20T10:56:48.632Z,100185.19
2023-04-20T10:59:22.447Z,100179.59
2023-04-20T11:01:54.178Z,100174.81
2023-04-20T11:04:35.254Z,100174.25
2023-04-20T11:07:15.621Z,100171.34
2023-04-20T11:09:46.567Z,100181.50
2023-04-20T11:12:17.004Z,100172.69
2023-04-20T11:14:55.791Z,100172.94
2023-04-20T11:17:35.539Z,100180.16
2023-04-20T11:20:24.453Z,100168.34
2023-04-20T11:22:57.894Z,100163.28
2023-04-20T11:25:26.859Z,100172.37
2023-04-20T11:28:12.416Z,100168.66
2023-04-20T11:30:47.190Z,100168.09
2023-04-20T11:33:27.123Z,100166.78
2023-04-20T11:36:01.765Z,100166.22
2023-04-20T11:38:39.669Z,100162.75
2023-04-20T11:41:12.707Z,100166.22
2023-04-20T11:43:40.332Z,100174.53
2023-04-20T11:46:24.023Z,100165.94
2023-04-20T11:48:57.214Z,100160.03
2023-04-20T11:51:26.915Z,100163.75
2023-04-20T11:54:00.564Z,100168.56
2023-04-20T11:56:33.403Z,100167.22
2023-04-20T11:59:03.776Z,100159.94
2023-04-20T12:01:34.614Z,100159.94
2023-04-20T12:04:10.939Z,100159.94
2023-04-20T12:06:44.422Z,100158.87
2023-04-20T12:09:12.879Z,100161.56
2023-04-20T12:11:45.733Z,100159.41
2023-04-20T12:14:13.182Z,100159.09
2023-04-20T12:16:40.113Z,100150.50
2023-04-20T12:19:07.439Z,100147.84
2023-04-20T12:21:40.984Z,100152.94
2023-04-20T12:24:07.991Z,100150.50
2023-04-20T12:26:38.348Z,100156.66
2023-04-20T12:29:06.033Z,100153.72
2023-04-20T12:31:39.049Z,100142.72
2023-04-20T12:34:09.356Z,100142.72
2023-04-20T12:36:36.356Z,100134.41
2023-04-20T12:39:03.728Z,100132.53
2023-04-20T12:41:34.406Z,100131.72
2023-04-20T12:44:16.041Z,100126.38
2023-04-20T12:46:43.505Z,100130.91
2023-04-20T12:49:13.305Z,100123.38
2023-04-20T12:51:45.830Z,100132.22
2023-04-20T12:54:12.788Z,100127.16
2023-04-20T12:56:46.464Z,100122.59
2023-04-20T12:59:16.537Z,100119.13
2023-04-20T13:01:45.335Z,100121.00
2023-04-20T13:04:15.117Z,100119.38
2023-04-20T13:06:57.000Z,100111.06
2023-04-20T13:09:28.355Z,100112.13
2023-04-20T13:11:58.185Z,100116.44
2023-04-20T13:14:34.291Z,100116.44
2023-04-20T13:17:04.239Z,100109.44
2023-04-20T13:19:37.790Z,100116.44
2023-04-20T13:22:05.302Z,100098.72
2023-04-20T13:24:38.785Z,100107.59
2023-04-20T13:27:10.750Z,100104.09
2023-04-20T13:29:48.556Z,100108.88
2023-04-20T13:32:16.418Z,100103.53
2023-04-20T13:34:46.810Z,100099.75
2023-04-20T13:37:14.213Z,100099.75
2023-04-20T13:39:41.923Z,100103.53
2023-04-20T13:42:15.552Z,100103.53
2023-04-20T13:44:47.313Z,100099.25
2023-04-20T13:47:18.125Z,100095.78
2023-04-20T13:49:45.616Z,100100.34
2023-04-20T13:52:22.812Z,100096.56
2023-04-20T13:54:53.631Z,100094.97
2023-04-20T13:57:24.308Z,100099.53
2023-04-20T13:59:57.864Z,100089.62
2023-04-20T14:02:33.907Z,100082.62
2023-04-20T14:05:01.872Z,100089.06
2023-04-20T14:07:33.078Z,100089.62
2023-04-20T14:10:00.490Z,100085.03
2023-04-20T14:12:34.038Z,100082.06
2023-04-20T14:15:05.509Z,100078.31
2023-04-20T14:17:43.206Z,100072.38
2023-04-20T14:20:17.335Z,100071.81
2023-04-20T14:22:48.360Z,100064.31
2023-04-20T14:25:18.728Z,100068.53
2023-04-20T14:27:49.243Z,100061.03
2023-04-20T14:30:25.783Z,100067.44
2023-04-20T14:33:02.044Z,100059.91
2023-04-20T14:35:29.059Z,100059.34
2023-04-20T14:37:59.056Z,100058.78
2023-04-20T14:40:29.813Z,100061.97
2023-04-20T14:43:01.495Z,100059.03
2023-04-20T14:45:34.798Z,100054.94
2023-04-20T14:48:01.839Z,100061.66
2023-04-20T14:50:32.443Z,100061.09
2023-04-20T14:53:13.462Z,100065.06
2023-04-20T14:55:43.554Z,100056.75
2023-04-20T14:58:19.563Z,100059.12
2023-04-20T15:03:39.229Z,100054.81
2023-04-20T15:06:11.801Z,100057.47
2023-04-20T15:08:45.168Z,100058.00
2023-04-20T15:11:18.250Z,100058.00
2023-04-20T15:13:48.989Z,100048.06
2023-04-20T15:16:16.014Z,100058.25
2023-04-20T15:18:46.783Z,100053.94
2023-04-20T15:21:17.017Z,100043.50
2023-04-20T15:23:50.492Z,100046.19
2023-04-20T15:26:26.550Z,100043.50
2023-04-20T15:28:56.259Z,100044.59
2023-04-20T15:31:23.854Z,100047.28
2023-04-20T15:33:50.870Z,100059.03
2023-04-20T15:36:20.083Z,100055.25
2023-04-20T15:38:53.976Z,100045.31
2023-04-20T15:41:27.842Z,100045.31
2023-04-20T15:43:57.426Z,100037.56
2023-04-20T15:46:28.204Z,100046.69
2023-04-20T15:48:58.728Z,100044.00
2023-04-20T15:51:33.474Z,100042.94
2023-04-20T15:54:06.614Z,100045.09
2023-04-20T15:56:36.153Z,100042.94
2023-04-20T15:59:10.148Z,100042.38
2023-04-20T16:01:45.678Z,100042.38
2023-04-20T16:04:19.535Z,100046.12
2023-04-20T16:06:53.457Z,100044.75
2023-04-20T16:09:27.042Z,100049.03
2023-04-20T16:11:57.458Z,100037.19
2023-04-20T16:14:24.949Z,100042.31
2023-04-20T16:16:55.581Z,100048.78
2023-04-20T16:19:25.696Z,100045.25
2023-04-20T16:21:56.049Z,100041.78
2023-04-20T16:24:31.928Z,100045.56
2023-04-20T16:26:59.479Z,100035.62
2023-04-20T16:29:32.449Z,100041.78
2023-04-20T16:32:01.241Z,100041.78
2023-04-20T16:34:29.466Z,100043.09
2023-04-20T16:37:02.314Z,100042.31
2023-04-20T16:39:33.088Z,100045.78
2023-04-20T16:42:04.727Z,100044.44
2023-04-20T16:44:39.101Z,100043.59
2023-04-20T16:47:11.090Z,100044.44
2023-04-20T16:49:47.277Z,100052.97
2023-04-20T16:52:21.388Z,100045.44
2023-04-20T16:54:54.121Z,100054.56
2023-04-20T16:57:25.455Z,100056.19
2023-04-20T16:59:55.588Z,100058.28
2023-04-20T17:02:29.585Z,100067.16
2023-04-20T17:05:02.570Z,100069.56
2023-04-20T17:07:33.109Z,100057.72
2023-04-20T17:10:00.651Z,100069.00
2023-04-20T17:12:31.200Z,100066.78
2023-04-20T17:15:04.917Z,100065.22
2023-04-20T17:17:36.234Z,100067.59
2023-04-20T17:20:13.349Z,100074.59
2023-04-20T17:22:40.407Z,100069.22
2023-04-20T17:25:15.016Z,100073.50
2023-04-20T17:27:45.265Z,100073.50
2023-04-20T17:30:21.389Z,100076.44
2023-04-20T17:32:52.928Z,100072.16
2023-04-20T17:35:23.497Z,100072.16
2023-04-20T17:37:54.625Z,100081.31
2023-04-20T17:40:27.807Z,100073.81
2023-04-20T17:42:58.110Z,100083.47
2023-04-20T17:45:34.575Z,100088.06
2023-04-20T17:48:11.275Z,100094.50
2023-04-20T17:50:41.574Z,100092.13
2023-04-20T17:53:12.896Z,100091.03
2023-04-20T17:55:50.361Z,100090.00
2023-04-20T17:58:19.520Z,100092.16
2023-04-20T18:00:49.505Z,100095.16
2023-04-20T18:03:17.992Z,100099.72
2023-04-20T18:05:59.014Z,100094.34
2023-04-20T18:08:28.848Z,100095.94
2023-04-20T18:11:08.079Z,100105.09
2023-04-20T18:13:44.218Z,100104.53
2023-04-20T18:16:16.756Z,100105.56
2023-04-20T18:18:48.565Z,100104.97
2023-04-20T18:21:23.107Z,100112.75
2023-04-20T18:23:54.256Z,100109.75
2023-04-20T18:26:25.730Z,100114.56
2023-04-20T18:28:57.900Z,100114.00
2023-04-20T18:31:31.036Z,100120.97
2023-04-20T18:34:06.271Z,100120.69
2023-04-20T18:36:41.982Z,100121.50
2023-04-20T18:39:09.893Z,100133.84
2023-04-20T18:41:40.783Z,100125.78
2023-04-20T18:44:14.913Z,100139.22
2023-04-20T18:46:45.435Z,100129.56
2023-04-20T18:49:22.831Z,100133.31
2023-04-20T18:51:53.418Z,100137.62
2023-04-20T18:54:28.124Z,100135.50
2023-04-20T18:56:55.942Z,100137.09
2023-04-20T18:59:25.125Z,100137.09
2023-04-20T19:01:52.955Z,100137.88
2023-04-20T19:04:25.069Z,100141.97
2023-04-20T19:06:59.350Z,100136.84
2023-04-20T19:09:35.613Z,100139.03
2023-04-20T19:12:07.137Z,100140.91
2023-04-20T19:14:39.271Z,100142.78
2023-04-20T19:17:11.704Z,100136.38
2023-04-20T19:19:42.932Z,100136.63
2023-04-20T19:22:13.530Z,100142.53
2023-04-20T19:24:46.155Z,100141.50
2023-04-20T19:27:22.822Z,100144.19
2023-04-20T19:29:55.839Z,100144.97
2023-04-20T19:32:31.766Z,100144.97
2023-04-20T19:35:02.180Z,100144.97
2023-04-20T19:37:35.947Z,100152.81
2023-04-20T19:40:13.231Z,100154.16
2023-04-20T19:42:45.154Z,100155.25
2023-04-20T19:45:15.419Z,100156.03
2023-04-20T19:47:51.415Z,100158.72
2023-04-20T19:50:19.044Z,100152.84
2023-04-20T19:52:46.826Z,100152.84
2023-04-20T19:55:17.055Z,100156.59
2023-04-20T19:57:54.700Z,100156.59
2023-04-20T20:00:21.886Z,100157.19
2023-04-20T20:02:50.885Z,100162.56
2023-04-20T20:05:18.866Z,100160.94
2023-04-20T20:07:47.477Z,100163.63
2023-04-20T20:10:17.839Z,100166.59
2023-04-20T20:12:54.762Z,100159.91
2023-04-20T20:15:26.985Z,100167.97
2023-04-20T20:17:56.701Z,100171.72
2023-04-20T20:20:32.018Z,100173.34
2023-04-20T20:23:00.364Z,100166.66
2023-04-20T20:25:27.546Z,100160.50
2023-04-20T20:27:54.912Z,100165.87
2023-04-20T20:30:31.108Z,100161.56
2023-04-20T20:32:59.835Z,100164.25
2023-04-20T20:35:29.952Z,100161.06
2023-04-20T20:38:00.744Z,100163.44
2023-04-20T20:40:28.145Z,100167.47
2023-04-20T20:43:03.878Z,100163.75
2023-04-20T20:45:35.901Z,100164.78
2023-04-20T20:48:06.584Z,100172.34
2023-04-20T20:50:40.709Z,100165.38
2023-04-20T20:53:08.410Z,100164.59
2023-04-20T20:55:39.476Z,100163.75
2023-04-20T20:58:10.272Z,100166.75
2023-04-20T21:00:42.937Z,100165.94
2023-04-20T21:03:20.751Z,100169.72
2023-04-20T21:05:51.259Z,100173.47
2023-04-20T21:08:20.484Z,100178.84
2023-04-20T21:10:48.164Z,100179.91
2023-04-20T21:13:21.556Z,100181.81
2023-04-20T21:15:52.042Z,100181.00
2023-04-20T21:18:25.494Z,100183.16
2023-04-20T21:20:53.235Z,100177.78
2023-04-20T21:26:04.469Z,100178.38
2023-04-20T21:28:35.230Z,100182.13
2023-04-20T21:31:11.141Z,100177.56
2023-04-20T21:33:44.642Z,100181.31
2023-04-20T21:36:12.252Z,100177.34
2023-04-20T21:38:43.526Z,100177.34
2023-04-20T21:41:15.861Z,100177.34
2023-04-20T21:43:46.734Z,100178.41
2023-04-20T21:46:17.340Z,100177.34
2023-04-20T21:48:51.501Z,100173.31
2023-04-20T21:51:27.670Z,100175.22
2023-04-20T21:54:04.243Z,100176.25
2023-04-20T21:56:34.640Z,100176.25
2023-04-20T21:59:05.507Z,100174.69
2023-04-20T22:01:33.296Z,100170.09
2023-04-20T22:04:00.976Z,100168.50
2023-04-20T22:06:35.287Z,100169.59
2023-04-20T22:09:05.868Z,100171.19
2023-04-20T22:11:36.641Z,100173.06
2023-04-20T22:14:06.768Z,100177.66
2023-04-20T22:16:40.834Z,100180.59
2023-04-20T22:19:11.935Z,100179.78
2023-04-20T22:21:41.458Z,100178.19
2023-04-20T22:24:09.191Z,100170.44
2023-04-20T22:26:37.060Z,100179.28
2023-04-20T22:29:07.748Z,100165.06
2023-04-20T22:31:38.616Z,100166.97
2023-04-20T22:34:11.544Z,100166.44
2023-04-20T22:36:42.727Z,100168.31
2023-04-20T22:39:13.764Z,100167.75
2023-04-20T22:41:44.179Z,100163.47
2023-04-20T22:44:14.919Z,100165.06
2023-04-20T22:46:45.502Z,100167.75
2023-04-20T22:49:13.099Z,100169.41
2023-04-20T22:51:42.440Z,100172.09
2023-04-20T22:54:09.957Z,100173.13
2023-04-20T22:56:37.948Z,100178.47
2023-04-20T23:01:46.890Z,100176.88
2023-04-20T23:04:14.324Z,100175.78
2023-04-20T23:06:42.462Z,100186.81
2023-04-20T23:09:13.963Z,100187.13
2023-04-20T23:11:44.264Z,100182.53
2023-04-20T23:14:14.632Z,100186.03
2023-04-20T23:16:45.445Z,100180.66
2023-04-20T23:19:14.780Z,100182.81
2023-04-20T23:21:44.827Z,100187.38
2023-04-20T23:24:12.832Z,100175.84
2023-04-20T23:26:41.272Z,100175.03
2023-04-20T23:29:14.811Z,100176.94
2023-04-20T23:31:45.189Z,100172.66
2023-04-20T23:34:13.649Z,100176.13
2023-04-20T23:36:44.408Z,100177.47
2023-04-20T23:39:12.032Z,100180.16
2023-04-20T23:41:39.294Z,100175.59
2023-04-20T23:44:16.662Z,100172.13
2023-04-20T23:46:46.820Z,100174.81
2023-04-20T23:49:14.369Z,100176.41
2023-04-20T23:51:44.096Z,100179.66
2023-04-20T23:54:14.678Z,100176.97
2023-04-20T23:56:42.312Z,100176.97
